Time;durP1;ratioP1;P1;durP2;ratioP2;P2;SDS_P1;SDS_P2;PMS_P1;PMS_P2;Temp;Humidity;BMP_temperature;BMP_pressure;BME280_temperature;BME280_humidity;BME280_pressure;Samples;Min_cycle;Max_cycle;Signal;HPM_P1;HPM_P2
2021/08/14 00:00:35;;;;;;;12.88;5.10;;;15.50;92.50;;;;;;4970424;28;20031;-52
2021/08/14 00:03:01;;;;;;;13.07;4.57;;;15.40;92.50;;;;;;4967325;28;20109;-49
2021/08/14 00:05:27;;;;;;;14.45;5.50;;;15.40;92.40;;;;;;4974068;28;20488;-53
2021/08/14 00:07:57;;;;;;;19.30;5.90;;;15.40;92.40;;;;;;4940741;28;20043;-49
2021/08/14 00:10:23;;;;;;;11.63;5.00;;;15.40;92.30;;;;;;4946975;28;20393;-51
2021/08/14 00:12:48;;;;;;;11.10;5.20;;;15.40;92.30;;;;;;4973678;28;20094;-53
2021/08/14 00:15:15;;;;;;;16.45;6.13;;;15.40;92.20;;;;;;4970783;28;20093;-53
2021/08/14 00:17:40;;;;;;;13.20;5.18;;;15.40;92.30;;;;;;4956686;28;20042;-53
2021/08/14 00:20:07;;;;;;;12.93;5.47;;;15.40;92.20;;;;;;4972951;28;20459;-53
2021/08/14 00:22:33;;;;;;;13.60;5.15;;;15.40;92.10;;;;;;4973722;28;20081;-55
2021/08/14 00:24:59;;;;;;;16.33;5.35;;;15.40;92.10;;;;;;4955574;28;20039;-55
2021/08/14 00:27:25;;;;;;;14.90;5.55;;;15.40;92.10;;;;;;4973811;28;20141;-54
2021/08/14 00:29:51;;;;;;;13.23;6.13;;;15.40;92.00;;;;;;4973785;28;20098;-54
2021/08/14 00:32:16;;;;;;;17.95;5.80;;;15.40;92.00;;;;;;4940038;28;20046;-55
2021/08/14 00:34:42;;;;;;;18.05;5.22;;;15.40;92.00;;;;;;4968249;28;20043;-54
2021/08/14 00:37:08;;;;;;;21.25;6.57;;;15.40;92.00;;;;;;4965408;28;20054;-55
2021/08/14 00:39:33;;;;;;;14.60;5.40;;;15.40;92.00;;;;;;4973760;28;20082;-54
2021/08/14 00:42:00;;;;;;;13.45;5.63;;;15.40;91.90;;;;;;4971324;28;20438;-54
2021/08/14 00:44:27;;;;;;;16.58;5.60;;;15.30;91.90;;;;;;4922037;28;20043;-54
2021/08/14 00:46:55;;;;;;;17.10;6.10;;;15.30;91.90;;;;;;4973436;28;20050;-53
2021/08/14 00:49:22;;;;;;;14.05;5.95;;;15.30;91.90;;;;;;4955975;28;20492;-54
2021/08/14 00:51:48;;;;;;;16.58;5.80;;;15.30;91.90;;;;;;4942605;28;20170;-54
2021/08/14 00:54:14;;;;;;;12.98;6.00;;;15.30;92.00;;;;;;4944686;29;20134;-54
2021/08/14 00:56:41;;;;;;;15.38;6.13;;;15.30;91.90;;;;;;4971740;28;20049;-54
2021/08/14 00:59:06;;;;;;;16.13;5.90;;;15.30;91.90;;;;;;4971859;28;20562;-53
2021/08/14 01:01:33;;;;;;;13.93;6.20;;;15.30;92.00;;;;;;4973180;28;20158;-51
2021/08/14 01:03:59;;;;;;;21.98;6.05;;;15.30;92.00;;;;;;4964792;28;20047;-54
2021/08/14 01:06:28;;;;;;;15.38;6.68;;;15.30;92.10;;;;;;4950471;28;20049;-52
2021/08/14 01:08:55;;;;;;;17.50;5.97;;;15.20;92.10;;;;;;4956363;28;20034;-55
2021/08/14 01:11:22;;;;;;;19.23;6.25;;;15.20;92.10;;;;;;4973042;28;20042;-52
2021/08/14 01:13:48;;;;;;;16.00;6.20;;;15.30;92.20;;;;;;4971891;28;20043;-55
2021/08/14 01:16:14;;;;;;;14.20;6.63;;;15.20;92.10;;;;;;4973018;28;20074;-55
2021/08/14 01:18:41;;;;;;;15.63;6.05;;;15.20;92.20;;;;;;4971332;28;20046;-54
2021/08/14 01:21:09;;;;;;;18.27;6.35;;;15.20;92.20;;;;;;4972717;28;20050;-51
2021/08/14 01:23:35;;;;;;;15.13;5.95;;;15.30;92.20;;;;;;4953398;28;20030;-52
2021/08/14 01:26:08;;;;;;;16.10;5.50;;;15.30;92.20;;;;;;4972602;28;20053;-53
2021/08/14 01:28:35;;;;;;;13.90;5.90;;;15.30;92.20;;;;;;4969325;28;20047;-53
2021/08/14 01:31:04;;;;;;;16.23;6.13;;;15.20;92.20;;;;;;4952201;28;20034;-49
2021/08/14 01:33:37;;;;;;;15.02;6.13;;;15.30;92.20;;;;;;4972917;28;20046;-49
2021/08/14 01:36:08;;;;;;;15.90;6.22;;;15.20;92.20;;;;;;4964787;28;20054;-50
2021/08/14 01:38:42;;;;;;;18.63;6.60;;;15.20;92.30;;;;;;4949180;28;20555;-53
2021/08/14 01:41:08;;;;;;;19.45;5.85;;;15.20;92.40;;;;;;4972790;28;20479;-51
2021/08/14 01:43:55;;;;;;;15.32;6.07;;;15.20;92.40;;;;;;4971723;28;20045;-49
2021/08/14 01:46:21;;;;;;;14.95;6.22;;;15.20;92.50;;;;;;4971403;28;20047;-52
2021/08/14 01:48:47;;;;;;;14.05;5.97;;;15.30;92.50;;;;;;4973408;28;20315;-53
2021/08/14 01:51:13;;;;;;;23.48;6.90;;;15.30;92.50;;;;;;4984340;28;20052;-54
2021/08/14 01:53:46;;;;;;;16.85;6.47;;;15.30;92.50;;;;;;4969367;28;20040;-55
2021/08/14 01:56:12;;;;;;;17.65;6.38;;;15.30;92.50;;;;;;4964418;28;20046;-55
2021/08/14 01:58:38;;;;;;;14.27;6.20;;;15.30;92.60;;;;;;4962689;28;20424;-56
2021/08/14 02:01:03;;;;;;;22.17;6.65;;;15.30;92.60;;;;;;4972128;28;20047;-55
2021/08/14 02:03:29;;;;;;;15.25;6.78;;;15.30;92.70;;;;;;4963914;28;20051;-54
2021/08/14 02:05:55;;;;;;;16.98;6.35;;;15.30;92.70;;;;;;4982891;28;20043;-55
2021/08/14 02:08:21;;;;;;;18.10;6.78;;;15.30;92.70;;;;;;4974513;28;20050;-56
2021/08/14 02:10:47;;;;;;;17.33;6.85;;;15.30;92.60;;;;;;4957132;28;20143;-55
2021/08/14 02:13:13;;;;;;;20.00;6.68;;;15.30;92.60;;;;;;4957354;28;20062;-56
2021/08/14 02:15:38;;;;;;;20.48;6.53;;;15.30;92.60;;;;;;4973547;28;20073;-55
2021/08/14 02:18:04;;;;;;;15.50;6.20;;;15.30;92.70;;;;;;4975543;28;20047;-54
2021/08/14 02:20:29;;;;;;;16.88;6.97;;;15.30;92.60;;;;;;4961208;28;20047;-56
2021/08/14 02:22:55;;;;;;;17.95;7.20;;;15.30;92.70;;;;;;4975281;28;20039;-54
2021/08/14 02:25:21;;;;;;;18.83;6.63;;;15.30;92.70;;;;;;4975337;28;20042;-55
2021/08/14 02:27:46;;;;;;;15.88;6.78;;;15.30;92.70;;;;;;4970648;28;20071;-56
2021/08/14 02:30:12;;;;;;;17.60;6.65;;;15.30;92.80;;;;;;4977555;28;20046;-55
2021/08/14 02:32:38;;;;;;;17.10;6.70;;;15.30;92.80;;;;;;4975190;28;20484;-56
2021/08/14 02:35:04;;;;;;;15.88;7.13;;;15.30;92.80;;;;;;4952994;28;20043;-49
2021/08/14 02:37:31;;;;;;;15.15;6.40;;;15.30;92.80;;;;;;4950383;28;20202;-56
2021/08/14 02:39:58;;;;;;;15.02;6.47;;;15.30;92.80;;;;;;4975687;28;20514;-50
2021/08/14 02:42:24;;;;;;;16.13;6.78;;;15.30;92.80;;;;;;4974960;28;20046;-53
2021/08/14 02:44:49;;;;;;;19.45;7.15;;;15.30;92.90;;;;;;4967278;28;20542;-53
2021/08/14 02:47:15;;;;;;;18.15;6.57;;;15.30;92.90;;;;;;4966357;28;20134;-50
2021/08/14 02:49:40;;;;;;;20.67;7.40;;;15.30;92.90;;;;;;4975670;28;20047;-53
2021/08/14 02:52:06;;;;;;;15.77;6.65;;;15.30;93.00;;;;;;4974562;28;20041;-54
2021/08/14 02:54:32;;;;;;;18.85;6.93;;;15.30;93.00;;;;;;4951655;28;20419;-55
2021/08/14 02:56:58;;;;;;;21.38;7.05;;;15.30;93.00;;;;;;4975589;28;20053;-56
2021/08/14 02:59:24;;;;;;;16.55;7.10;;;15.30;93.10;;;;;;4941817;28;20097;-54
2021/08/14 03:01:49;;;;;;;18.98;7.30;;;15.30;93.20;;;;;;4970892;28;20295;-55
2021/08/14 03:04:15;;;;;;;19.27;6.97;;;15.30;93.30;;;;;;4966006;28;20054;-56
2021/08/14 03:06:41;;;;;;;24.15;7.05;;;15.30;93.30;;;;;;4972937;28;20055;-50
2021/08/14 03:09:08;;;;;;;17.80;6.88;;;15.30;93.40;;;;;;4942187;29;20039;-53
2021/08/14 03:11:36;;;;;;;23.73;7.53;;;15.30;93.40;;;;;;4968657;28;20047;-54
2021/08/14 03:14:01;;;;;;;20.27;7.10;;;15.30;93.40;;;;;;4975119;28;20057;-50
2021/08/14 03:16:27;;;;;;;18.85;7.45;;;15.30;93.50;;;;;;4962563;28;20427;-50
2021/08/14 03:18:53;;;;;;;16.25;6.88;;;15.30;93.50;;;;;;4966712;28;20051;-50
2021/08/14 03:21:19;;;;;;;19.10;7.50;;;15.30;93.50;;;;;;4964113;28;20043;-52
2021/08/14 03:23:45;;;;;;;17.00;7.15;;;15.50;93.50;;;;;;4953792;28;20036;-52
2021/08/14 03:26:11;;;;;;;20.50;7.22;;;15.30;93.50;;;;;;4968947;28;20050;-51
2021/08/14 03:28:37;;;;;;;23.88;7.35;;;15.30;93.60;;;;;;4966954;28;20053;-53
2021/08/14 03:31:02;;;;;;;20.50;7.57;;;15.30;93.60;;;;;;4962063;28;20044;-55
2021/08/14 03:33:28;;;;;;;21.17;7.38;;;15.30;93.60;;;;;;4966253;28;20111;-55
2021/08/14 03:35:53;;;;;;;19.52;7.20;;;15.30;93.60;;;;;;4962518;28;20054;-54
2021/08/14 03:38:19;;;;;;;18.10;7.38;;;15.30;93.70;;;;;;4963041;28;20122;-55
2021/08/14 03:40:45;;;;;;;22.60;6.88;;;15.40;93.70;;;;;;4974559;28;20035;-54
2021/08/14 03:43:11;;;;;;;19.67;7.50;;;15.30;93.70;;;;;;4961565;28;20118;-55
2021/08/14 03:45:37;;;;;;;21.98;6.80;;;15.30;93.80;;;;;;4984408;28;20231;-55
2021/08/14 03:48:08;;;;;;;16.75;6.60;;;15.30;93.80;;;;;;4954936;28;20038;-53
2021/08/14 03:50:34;;;;;;;18.60;6.72;;;15.30;93.80;;;;;;4955068;28;20138;-55
2021/08/14 03:53:00;;;;;;;28.60;7.35;;;15.30;93.80;;;;;;4970549;28;20125;-55
2021/08/14 03:55:26;;;;;;;21.60;7.47;;;15.40;93.90;;;;;;4972199;28;20042;-55
2021/08/14 03:57:51;;;;;;;21.20;6.97;;;15.30;93.90;;;;;;4970193;28;20054;-54
2021/08/14 04:00:17;;;;;;;23.50;7.28;;;15.40;94.00;;;;;;4969739;28;20038;-55
2021/08/14 04:02:42;;;;;;;22.13;7.30;;;15.40;94.00;;;;;;4970343;28;20130;-55
2021/08/14 04:05:08;;;;;;;22.80;7.15;;;15.40;94.00;;;;;;4967611;28;20126;-55
2021/08/14 04:07:35;;;;;;;22.05;7.10;;;15.40;94.10;;;;;;4974808;28;20074;-55
2021/08/14 04:10:00;;;;;;;24.02;7.15;;;15.40;94.10;;;;;;4946838;28;20460;-54
2021/08/14 04:12:30;;;;;;;19.45;7.80;;;15.40;94.10;;;;;;4966296;28;20047;-55
2021/08/14 04:14:59;;;;;;;21.45;7.50;;;15.50;94.30;;;;;;4950602;28;20043;-56
2021/08/14 04:17:24;;;;;;;19.35;7.43;;;15.50;94.30;;;;;;4943630;28;20063;-54
2021/08/14 04:19:50;;;;;;;20.73;7.40;;;15.50;94.20;;;;;;4955097;28;20038;-55
2021/08/14 04:22:16;;;;;;;23.80;7.47;;;15.50;94.20;;;;;;4972220;28;20102;-55
2021/08/14 04:24:42;;;;;;;20.83;7.45;;;15.50;94.20;;;;;;4963100;28;20039;-55
2021/08/14 04:27:08;;;;;;;20.60;7.50;;;15.50;94.20;;;;;;4968853;28;20046;-55
2021/08/14 04:29:39;;;;;;;20.42;7.82;;;15.50;94.30;;;;;;4947318;28;20046;-55
2021/08/14 04:32:05;;;;;;;24.00;8.43;;;15.50;94.30;;;;;;4967724;28;20093;-55
2021/08/14 04:34:32;;;;;;;19.75;7.07;;;15.50;94.40;;;;;;4962926;28;20055;-55
2021/08/14 04:36:58;;;;;;;19.33;7.30;;;15.50;94.30;;;;;;4934082;28;20042;-55
2021/08/14 04:39:25;;;;;;;26.88;8.32;;;15.50;94.40;;;;;;4971082;28;20042;-53
2021/08/14 04:41:50;;;;;;;22.23;8.13;;;15.50;94.40;;;;;;4979305;28;20051;-52
2021/08/14 04:44:16;;;;;;;24.65;7.82;;;15.50;94.40;;;;;;4967260;28;20072;-52
2021/08/14 04:46:42;;;;;;;29.30;8.50;;;15.50;94.50;;;;;;4952756;28;20045;-53
2021/08/14 04:49:08;;;;;;;21.30;7.32;;;15.50;94.50;;;;;;4955871;28;20126;-55
2021/08/14 04:51:37;;;;;;;22.27;7.63;;;15.50;94.50;;;;;;4942087;28;20050;-53
2021/08/14 04:54:04;;;;;;;22.40;8.25;;;15.40;94.50;;;;;;4963412;28;20035;-54
2021/08/14 04:56:31;;;;;;;20.40;7.53;;;15.40;94.50;;;;;;4968717;28;20039;-54
2021/08/14 04:58:56;;;;;;;21.75;7.53;;;15.50;94.60;;;;;;4972907;28;20136;-53
2021/08/14 05:01:22;;;;;;;22.85;7.45;;;15.40;94.60;;;;;;4968993;28;20081;-52
2021/08/14 05:03:48;;;;;;;27.15;8.35;;;15.40;94.60;;;;;;4972682;28;20038;-52
2021/08/14 05:06:14;;;;;;;22.90;7.90;;;15.40;94.70;;;;;;4938802;28;20173;-54
2021/08/14 05:08:40;;;;;;;21.20;7.68;;;15.40;94.70;;;;;;4969451;28;20055;-50
2021/08/14 05:11:06;;;;;;;20.70;7.82;;;15.40;94.70;;;;;;4972903;28;20131;-52
2021/08/14 05:13:32;;;;;;;25.10;8.07;;;15.40;94.80;;;;;;4965200;28;20050;-52
2021/08/14 05:15:58;;;;;;;26.13;8.70;;;15.40;94.80;;;;;;4972842;28;20043;-53
2021/08/14 05:18:24;;;;;;;22.55;8.25;;;15.40;94.80;;;;;;4961765;28;20047;-53
2021/08/14 05:20:50;;;;;;;22.95;8.38;;;15.40;94.90;;;;;;4936009;29;20035;-54
2021/08/14 05:23:16;;;;;;;31.02;9.15;;;15.40;94.90;;;;;;4956967;28;20131;-52
2021/08/14 05:25:42;;;;;;;29.27;8.77;;;15.50;95.00;;;;;;4967528;28;20038;-51
2021/08/14 05:28:07;;;;;;;21.58;8.45;;;15.50;95.00;;;;;;4969363;28;20051;-53
2021/08/14 05:30:33;;;;;;;25.40;9.10;;;15.40;95.00;;;;;;4977366;28;20047;-53
2021/08/14 05:32:59;;;;;;;24.67;8.48;;;15.50;95.10;;;;;;4974806;28;20483;-55
2021/08/14 05:35:25;;;;;;;25.15;8.63;;;15.50;95.10;;;;;;4978517;28;20106;-53
2021/08/14 05:37:50;;;;;;;23.85;8.18;;;15.60;95.10;;;;;;4975954;28;20043;-53
2021/08/14 05:40:16;;;;;;;23.77;8.63;;;15.60;95.10;;;;;;4974880;28;20084;-53
2021/08/14 05:42:42;;;;;;;25.27;8.93;;;15.60;95.10;;;;;;4985199;28;20494;-53
2021/08/14 05:45:08;;;;;;;23.27;8.75;;;15.70;95.10;;;;;;4946897;28;20081;-53
2021/08/14 05:47:34;;;;;;;25.42;8.70;;;15.70;95.10;;;;;;4977780;28;20471;-52
2021/08/14 05:50:03;;;;;;;25.30;8.73;;;15.80;95.10;;;;;;4978815;28;20093;-53
2021/08/14 05:52:29;;;;;;;30.05;8.73;;;15.80;95.10;;;;;;4975944;28;20050;-53
2021/08/14 05:54:57;;;;;;;27.77;9.13;;;15.80;95.10;;;;;;4969304;28;20064;-53
2021/08/14 05:57:23;;;;;;;28.20;8.88;;;15.90;95.10;;;;;;4978290;28;20046;-53
2021/08/14 05:59:49;;;;;;;28.80;9.00;;;16.00;95.20;;;;;;4952591;28;20046;-53
2021/08/14 06:02:15;;;;;;;26.95;8.90;;;16.00;95.10;;;;;;4977812;28;20050;-53
2021/08/14 06:04:40;;;;;;;26.10;9.10;;;16.10;95.10;;;;;;4978346;28;20569;-53
2021/08/14 06:07:06;;;;;;;23.02;9.00;;;16.20;95.00;;;;;;4976568;28;20069;-55
2021/08/14 06:09:34;;;;;;;25.58;8.68;;;16.40;94.80;;;;;;4976567;28;20050;-53
2021/08/14 06:12:00;;;;;;;23.75;8.35;;;16.60;94.60;;;;;;4965877;28;20116;-53
2021/08/14 06:14:26;;;;;;;27.77;9.95;;;16.60;94.30;;;;;;4976324;28;20097;-54
2021/08/14 06:16:54;;;;;;;21.00;8.68;;;16.60;94.40;;;;;;4966299;28;20042;-55
2021/08/14 06:19:20;;;;;;;30.42;9.20;;;16.60;94.40;;;;;;4964388;28;20101;-52
2021/08/14 06:21:45;;;;;;;25.83;8.82;;;16.70;94.40;;;;;;4962030;28;20042;-53
2021/08/14 06:24:11;;;;;;;24.88;9.23;;;16.70;94.40;;;;;;4974519;28;20442;-52
2021/08/14 06:26:36;;;;;;;27.45;8.75;;;16.80;94.40;;;;;;4963520;28;20415;-56
2021/08/14 06:29:02;;;;;;;27.27;8.73;;;16.80;94.40;;;;;;4963449;28;20046;-52
2021/08/14 06:31:28;;;;;;;24.88;9.43;;;16.80;94.40;;;;;;4962560;28;20403;-53
2021/08/14 06:34:00;;;;;;;24.63;9.02;;;16.80;94.40;;;;;;4961370;28;20062;-54
2021/08/14 06:36:27;;;;;;;27.67;9.27;;;16.90;94.50;;;;;;4965752;28;20519;-55
2021/08/14 06:38:56;;;;;;;27.67;9.05;;;16.90;94.50;;;;;;4948737;29;20035;-51
2021/08/14 06:41:22;;;;;;;29.38;9.95;;;17.00;94.50;;;;;;4961369;28;20047;-51
2021/08/14 06:43:48;;;;;;;27.70;9.80;;;17.00;94.60;;;;;;4964584;28;20046;-49
2021/08/14 06:46:13;;;;;;;33.83;10.35;;;17.00;94.60;;;;;;4969530;28;20054;-54
2021/08/14 06:48:40;;;;;;;30.60;10.30;;;17.10;94.50;;;;;;4969279;28;20407;-52
2021/08/14 06:51:05;;;;;;;30.60;9.68;;;17.20;94.40;;;;;;4970719;28;20042;-51
2021/08/14 06:53:33;;;;;;;26.45;8.98;;;17.30;94.50;;;;;;4964470;28;20049;-54
2021/08/14 06:55:59;;;;;;;28.48;9.48;;;17.40;94.50;;;;;;4974201;28;20038;-52
2021/08/14 06:58:26;;;;;;;27.52;9.80;;;17.50;94.30;;;;;;4967897;28;20050;-50
2021/08/14 07:00:52;;;;;;;32.78;9.82;;;17.50;94.20;;;;;;4960513;28;20070;-53
2021/08/14 07:03:19;;;;;;;30.55;10.43;;;17.60;94.40;;;;;;4972391;28;20043;-53
2021/08/14 07:05:45;;;;;;;29.80;9.75;;;17.60;94.20;;;;;;4954066;28;20043;-52
2021/08/14 07:08:12;;;;;;;26.17;9.57;;;17.70;94.00;;;;;;4972936;28;20081;-55
2021/08/14 07:10:40;;;;;;;25.92;9.68;;;17.70;93.90;;;;;;4937680;28;20079;-55
2021/08/14 07:13:06;;;;;;;30.67;9.40;;;17.80;94.00;;;;;;4951323;28;20077;-55
2021/08/14 07:15:32;;;;;;;28.67;9.07;;;17.90;93.90;;;;;;4969699;28;20038;-51
2021/08/14 07:18:00;;;;;;;22.88;8.90;;;18.00;93.90;;;;;;4971718;28;20125;-52
2021/08/14 07:20:27;;;;;;;25.42;8.98;;;18.20;94.00;;;;;;4969525;28;20050;-54
2021/08/14 07:22:53;;;;;;;25.00;8.77;;;18.20;93.80;;;;;;4969856;28;20042;-52
2021/08/14 07:25:19;;;;;;;25.70;8.77;;;18.30;93.60;;;;;;4954063;28;21539;-52
2021/08/14 07:27:45;;;;;;;27.77;8.60;;;18.40;93.50;;;;;;4971686;28;20034;-50
2021/08/14 07:30:11;;;;;;;20.77;7.78;;;18.50;93.30;;;;;;4973662;28;20047;-48
2021/08/14 07:32:37;;;;;;;24.70;8.48;;;18.60;93.10;;;;;;4972366;28;20042;-49
2021/08/14 07:35:04;;;;;;;28.08;7.50;;;18.60;93.00;;;;;;4973163;28;20050;-50
2021/08/14 07:37:29;;;;;;;24.58;7.97;;;18.70;93.00;;;;;;4948773;28;20179;-48
2021/08/14 07:39:55;;;;;;;21.50;7.18;;;18.80;92.40;;;;;;4973373;28;20066;-50
2021/08/14 07:42:21;;;;;;;27.65;7.55;;;18.90;92.40;;;;;;4968117;28;20038;-51
2021/08/14 07:44:47;;;;;;;24.00;7.75;;;19.00;92.20;;;;;;4970849;28;20045;-50
2021/08/14 07:47:12;;;;;;;22.77;8.00;;;19.10;92.10;;;;;;4970127;28;20396;-52
2021/08/14 07:49:38;;;;;;;18.50;6.20;;;19.20;92.10;;;;;;4971720;28;20043;-50
2021/08/14 07:52:04;;;;;;;23.77;7.47;;;19.30;92.00;;;;;;4971147;28;20480;-52
2021/08/14 07:54:30;;;;;;;21.42;6.82;;;19.30;91.80;;;;;;4971079;28;20039;-49
2021/08/14 07:56:56;;;;;;;19.00;6.80;;;19.40;91.60;;;;;;4955152;28;20452;-49
2021/08/14 07:59:22;;;;;;;17.08;6.50;;;19.50;91.40;;;;;;4968906;28;20035;-48
2021/08/14 08:01:48;;;;;;;18.63;6.85;;;19.60;91.30;;;;;;4972241;28;20034;-49
2021/08/14 08:04:14;;;;;;;24.23;6.50;;;19.70;91.30;;;;;;4969157;28;20039;-51
2021/08/14 08:06:40;;;;;;;17.35;5.40;;;19.80;91.20;;;;;;4970848;28;20045;-50
2021/08/14 08:09:05;;;;;;;17.25;6.55;;;19.80;90.50;;;;;;4949027;28;20093;-53
2021/08/14 08:11:33;;;;;;;21.45;6.65;;;19.90;90.20;;;;;;4973372;28;20464;-54
2021/08/14 08:14:00;;;;;;;18.63;5.10;;;19.90;90.00;;;;;;4939888;28;20452;-51
2021/08/14 08:16:27;;;;;;;17.35;5.50;;;20.00;89.70;;;;;;4968168;28;20101;-55
2021/08/14 08:18:53;;;;;;;15.00;5.35;;;20.10;89.40;;;;;;4953621;28;20571;-53
2021/08/14 08:21:19;;;;;;;20.25;5.95;;;20.10;88.90;;;;;;4970447;28;20169;-53
2021/08/14 08:23:44;;;;;;;18.00;5.50;;;20.20;87.70;;;;;;4983105;28;20106;-50
2021/08/14 08:26:11;;;;;;;19.08;5.68;;;20.20;87.60;;;;;;4971475;28;20129;-53
2021/08/14 08:28:37;;;;;;;18.05;5.45;;;20.30;87.80;;;;;;4949112;29;20224;-50
2021/08/14 08:31:07;;;;;;;19.60;5.68;;;20.30;87.40;;;;;;4966645;28;20091;-52
2021/08/14 08:33:36;;;;;;;19.58;5.82;;;20.30;87.10;;;;;;4933760;28;20042;-52
2021/08/14 08:36:01;;;;;;;19.30;6.30;;;20.40;87.50;;;;;;4972316;28;20053;-55
2021/08/14 08:38:27;;;;;;;15.05;5.88;;;20.50;87.30;;;;;;4972482;28;20573;-53
2021/08/14 08:40:55;;;;;;;16.75;5.90;;;20.60;86.90;;;;;;4972050;28;20046;-52
2021/08/14 08:43:21;;;;;;;20.30;6.43;;;20.70;87.30;;;;;;4970999;28;20042;-53
2021/08/14 08:45:47;;;;;;;18.90;6.20;;;20.70;86.80;;;;;;4949675;28;20046;-58
2021/08/14 08:48:18;;;;;;;20.88;6.43;;;20.80;86.60;;;;;;4971746;28;20047;-56
2021/08/14 08:50:46;;;;;;;21.23;6.68;;;20.80;85.50;;;;;;4973224;28;20085;-57
2021/08/14 08:53:31;;;;;;;18.33;6.72;;;20.70;85.50;;;;;;4957220;28;20163;-58
2021/08/14 08:55:58;;;;;;;19.02;6.72;;;20.80;86.00;;;;;;4967522;28;20560;-54
2021/08/14 08:58:24;;;;;;;21.80;6.28;;;20.80;86.30;;;;;;4971867;28;20118;-54
2021/08/14 09:00:49;;;;;;;15.82;6.43;;;20.90;86.20;;;;;;4967730;28;20507;-57
2021/08/14 09:03:15;;;;;;;22.45;6.93;;;21.00;86.20;;;;;;4967726;28;20065;-53
2021/08/14 09:05:45;;;;;;;16.25;6.43;;;21.10;85.40;;;;;;4975182;28;20051;-52
2021/08/14 09:08:11;;;;;;;19.13;6.40;;;21.20;84.60;;;;;;4971361;28;20448;-51
2021/08/14 09:10:37;;;;;;;18.13;6.30;;;21.30;84.50;;;;;;4965554;28;20523;-52
2021/08/14 09:13:15;;;;;;;16.42;5.57;;;21.30;83.80;;;;;;4945353;29;20047;-52
2021/08/14 09:15:42;;;;;;;14.35;5.68;;;21.30;83.40;;;;;;4926222;28;20047;-55
2021/08/14 09:18:12;;;;;;;14.77;5.57;;;21.40;83.50;;;;;;4945246;28;20055;-51
2021/08/14 09:20:47;;;;;;;15.20;5.70;;;21.40;82.60;;;;;;4936241;29;20053;-54
2021/08/14 09:23:15;;;;;;;22.42;5.80;;;21.40;82.80;;;;;;4935593;29;20500;-51
2021/08/14 09:25:43;;;;;;;18.10;5.35;;;21.40;83.10;;;;;;4965095;28;20119;-54
2021/08/14 09:28:11;;;;;;;18.35;5.13;;;21.60;82.70;;;;;;4954530;28;20419;-54
2021/08/14 09:30:50;;;;;;;14.20;5.05;;;21.60;82.20;;;;;;4960585;28;20165;-58
2021/08/14 09:33:20;;;;;;;16.38;5.55;;;21.60;80.90;;;;;;4956388;28;20480;-57
2021/08/14 09:36:00;;;;;;;14.75;5.90;;;21.50;81.00;;;;;;4965753;28;20045;-57
2021/08/14 09:38:55;;;;;;;18.92;5.72;;;21.40;81.10;;;;;;4958830;28;20484;-58
2021/08/14 09:41:23;;;;;;;14.85;5.47;;;21.30;81.90;;;;;;4953258;28;20039;-52
2021/08/14 09:43:51;;;;;;;17.52;5.97;;;21.30;82.30;;;;;;4968854;28;20039;-55
2021/08/14 09:46:17;;;;;;;14.65;5.38;;;21.30;82.90;;;;;;4966312;28;20051;-54
2021/08/14 09:48:53;;;;;;;17.58;5.82;;;21.50;83.10;;;;;;4930774;29;20520;-55
2021/08/14 09:51:32;;;;;;;18.95;5.97;;;21.60;82.80;;;;;;4944040;28;20640;-55
2021/08/14 09:54:02;;;;;;;20.52;6.68;;;21.60;81.80;;;;;;4968753;28;20061;-53
2021/08/14 09:56:34;;;;;;;20.02;6.43;;;21.50;81.40;;;;;;4965241;28;20049;-55
2021/08/14 09:59:01;;;;;;;15.02;5.82;;;21.30;82.40;;;;;;4960358;28;20580;-50
2021/08/14 10:01:34;;;;;;;17.20;6.45;;;21.20;83.20;;;;;;4951428;28;20524;-52
2021/08/14 10:04:01;;;;;;;17.95;6.45;;;21.10;83.60;;;;;;4960100;28;20039;-52
2021/08/14 10:06:28;;;;;;;17.63;5.90;;;21.10;84.20;;;;;;4944621;28;20051;-54
2021/08/14 10:08:55;;;;;;;18.08;6.72;;;21.00;84.10;;;;;;4960888;28;20039;-53
2021/08/14 10:11:21;;;;;;;16.65;7.10;;;20.90;84.20;;;;;;4959077;28;20488;-53
2021/08/14 10:13:48;;;;;;;18.98;6.35;;;20.80;84.70;;;;;;4968911;28;20467;-51
2021/08/14 10:16:15;;;;;;;18.77;6.53;;;20.80;85.30;;;;;;4924139;28;20050;-55
2021/08/14 10:18:43;;;;;;;15.65;6.22;;;20.80;85.50;;;;;;4974226;28;20050;-52
2021/08/14 10:21:09;;;;;;;16.35;6.75;;;20.90;85.20;;;;;;4972378;28;20054;-56
2021/08/14 10:23:36;;;;;;;16.00;5.63;;;20.90;84.70;;;;;;4969740;28;20039;-56
2021/08/14 10:26:05;;;;;;;14.95;5.20;;;21.00;83.90;;;;;;4969763;28;20042;-56
2021/08/14 10:28:51;;;;;;;17.13;6.10;;;21.20;83.30;;;;;;4973380;28;20125;-55
2021/08/14 10:31:29;;;;;;;17.08;6.85;;;21.40;82.50;;;;;;4972019;28;20102;-53
2021/08/14 10:33:55;;;;;;;19.02;6.60;;;21.60;82.00;;;;;;4973630;28;20054;-51
2021/08/14 10:36:21;;;;;;;17.23;6.95;;;21.80;81.50;;;;;;4974164;28;20085;-53
2021/08/14 10:38:50;;;;;;;19.63;7.38;;;21.70;80.80;;;;;;4973168;28;20049;-52
2021/08/14 10:41:17;;;;;;;18.70;6.93;;;21.60;80.90;;;;;;4954449;28;20140;-53
2021/08/14 10:43:58;;;;;;;17.65;6.60;;;21.50;81.80;;;;;;4951950;28;20038;-55
2021/08/14 10:46:44;;;;;;;18.57;6.90;;;21.30;80.50;;;;;;4968790;28;20035;-56
2021/08/14 10:49:13;;;;;;;16.38;7.82;;;21.30;81.50;;;;;;4968371;28;20039;-56
2021/08/14 10:51:51;;;;;;;21.45;7.25;;;21.20;82.20;;;;;;4948892;28;20078;-56
2021/08/14 10:54:29;;;;;;;18.17;7.40;;;21.00;82.90;;;;;;4971638;28;20031;-55
2021/08/14 10:57:01;;;;;;;21.52;7.88;;;21.00;83.30;;;;;;4967665;28;20475;-55
2021/08/14 10:59:39;;;;;;;20.95;7.30;;;21.00;83.20;;;;;;4975539;28;20046;-52
2021/08/14 11:02:08;;;;;;;17.88;6.70;;;21.00;83.80;;;;;;4956755;28;20464;-54
2021/08/14 11:04:37;;;;;;;22.55;7.70;;;21.00;83.60;;;;;;4965138;28;20042;-53
2021/08/14 11:07:18;;;;;;;15.90;7.15;;;21.00;84.10;;;;;;4956589;28;20388;-52
2021/08/14 11:09:45;;;;;;;22.65;7.80;;;21.00;84.20;;;;;;4970159;28;20522;-52
2021/08/14 11:12:12;;;;;;;20.38;7.93;;;21.10;84.20;;;;;;4944613;28;20059;-55
2021/08/14 11:14:46;;;;;;;17.65;7.72;;;21.00;84.00;;;;;;4962212;28;20094;-55
2021/08/14 11:17:14;;;;;;;18.63;7.53;;;21.10;84.10;;;;;;4969739;28;20118;-55
2021/08/14 11:19:55;;;;;;;18.63;7.45;;;21.10;83.80;;;;;;4972235;28;20046;-56
2021/08/14 11:22:24;;;;;;;19.17;7.35;;;21.10;82.80;;;;;;4964249;28;20039;-55
2021/08/14 11:24:50;;;;;;;21.08;8.05;;;21.00;82.60;;;;;;4968775;28;20047;-55
2021/08/14 11:27:22;;;;;;;24.73;9.25;;;20.90;82.30;;;;;;4947790;28;20047;-53
2021/08/14 11:30:05;;;;;;;24.60;8.63;;;20.90;82.90;;;;;;4963506;28;20719;-48
2021/08/14 11:32:31;;;;;;;23.20;8.85;;;21.00;83.30;;;;;;4965641;28;20149;-52
2021/08/14 11:34:59;;;;;;;19.92;8.13;;;21.00;83.60;;;;;;4967857;28;20094;-54
2021/08/14 11:37:26;;;;;;;22.65;8.38;;;21.00;83.40;;;;;;4951858;28;20042;-54
2021/08/14 11:40:00;;;;;;;25.25;9.18;;;21.00;83.50;;;;;;4951857;28;20046;-54
2021/08/14 11:42:28;;;;;;;24.65;9.23;;;20.90;83.70;;;;;;4969285;28;20102;-53
2021/08/14 11:44:56;;;;;;;22.52;8.52;;;20.90;84.10;;;;;;4967936;28;20046;-53
2021/08/14 11:47:31;;;;;;;25.02;9.57;;;20.90;83.70;;;;;;4934347;28;20148;-47
2021/08/14 11:50:00;;;;;;;22.90;8.38;;;20.80;83.70;;;;;;4969290;28;20105;-54
2021/08/14 11:52:27;;;;;;;24.25;9.35;;;20.80;84.10;;;;;;4950067;28;20470;-53
2021/08/14 11:55:10;;;;;;;20.98;9.50;;;20.70;84.40;;;;;;4973802;28;20039;-51
2021/08/14 11:57:41;;;;;;;17.33;8.20;;;20.70;84.40;;;;;;4970706;28;20073;-54
2021/08/14 12:00:28;;;;;;;18.83;8.48;;;20.70;84.50;;;;;;4970077;28;20495;-54
2021/08/14 12:03:09;;;;;;;24.05;9.13;;;20.80;84.30;;;;;;4970326;28;20481;-52
2021/08/14 12:05:36;;;;;;;22.48;8.73;;;20.80;84.80;;;;;;4966474;28;20046;-54
2021/08/14 12:08:03;;;;;;;20.67;9.00;;;20.90;83.60;;;;;;4972538;28;20071;-54
2021/08/14 12:10:29;;;;;;;20.70;8.75;;;21.00;83.30;;;;;;4973279;28;20031;-54
2021/08/14 12:13:01;;;;;;;20.63;8.27;;;21.00;83.40;;;;;;4952697;28;20047;-54
2021/08/14 12:15:41;;;;;;;25.23;9.73;;;21.20;83.70;;;;;;4955770;28;20135;-54
2021/08/14 12:18:09;;;;;;;20.23;9.25;;;21.30;82.50;;;;;;4969230;28;20491;-54
2021/08/14 12:20:41;;;;;;;19.60;8.95;;;21.40;82.50;;;;;;4972778;28;20093;-54
2021/08/14 12:23:26;;;;;;;;;;;21.50;82.80;;;;;;4949718;28;20035;-54
2021/08/14 12:26:05;;;;;;;18.20;8.82;;;21.70;82.70;;;;;;4974766;28;19924;-54
2021/08/14 12:28:32;;;;;;;18.33;8.68;;;21.90;81.00;;;;;;4955180;28;20516;-54
2021/08/14 12:31:01;;;;;;;21.30;8.70;;;22.20;80.40;;;;;;4970136;28;20043;-54
2021/08/14 12:33:29;;;;;;;19.77;8.35;;;22.40;81.00;;;;;;4971549;28;20035;-53
2021/08/14 12:36:03;;;;;;;18.92;8.85;;;22.60;80.70;;;;;;4959235;28;20038;-50
2021/08/14 12:38:32;;;;;;;22.40;8.95;;;22.70;79.00;;;;;;4955690;28;20047;-52
2021/08/14 12:41:14;;;;;;;21.45;10.20;;;22.80;78.60;;;;;;4940008;28;20035;-54